Catawba, Virginia
Current Conditions -  °F | °C
As of 10:54 AM on Saturday 20 Dec 2014 (Local Time) from KROA Reporting Station
Overcast Overcast  
Wind Chill: 29°   Ceiling: 4400
Heat Index: 33°   Visibility: 10mi
Dew Point: 24°   Wind: 5mph
Humidity: 70%   Direction: 120°ESE
Pressure: 30.29"   Gusts: NA
Location:  37.38°N, 80.11°W
Report Text: KROA 201554Z 12004KT 10SM BKN044 OVC090 01/M04 A3029 RMK AO2 SLP268 T00061044
Loading
Personal Weather Stations






























Interactive Weather Map New forecast layout! Learn more

10-Day Weather Forecast

Advertisements
Track Severe Weather on mobile